Atlantic Mine, Michigan
Current Conditions -  °F | °C
As of 3:53 AM on Friday 28 Nov 2014 (Local Time) from KCMX Reporting Station
Clear Clear  
Wind Chill: -19°   Ceiling: Unl
Heat Index: -14°   Visibility: 10mi
Dew Point: -18°   Wind: 5mph
Humidity: 73%   Direction: 240°WSW
Pressure: 30.2"   Gusts: NA
Location:  47.1°N, 88.63°W
Report Text: KCMX 280853Z AUTO 24004KT 10SM CLR M14/M18 A3020 RMK AO2 SLP254 60000 T11391178 56010
Loading
Personal Weather Stations






























Interactive Weather Map New forecast layout! Learn more

10-Day Weather Forecast

Advertisements
Track Severe Weather on mobile